Time;durP1;ratioP1;P1;durP2;ratioP2;P2;SDS_P1;SDS_P2;PMS_P1;PMS_P2;Temp;Humidity;BMP_temperature;BMP_pressure;BME280_temperature;BME280_humidity;BME280_pressure;Samples;Min_cycle;Max_cycle;Signal;HPM_P1;HPM_P2
2022/04/14 00:00:33;;;;;;;;;17.00;16.75;;;;;15.62;67.36;101911.88;2446746;28;45207;-87
2022/04/14 00:01:44;;;;;;;;;17.50;16.00;;;;;15.61;67.49;101914.56;2441447;28;46181;-87
2022/04/14 00:02:54;;;;;;;;;18.00;16.00;;;;;15.61;67.73;101922.53;2441439;28;45309;-87
2022/04/14 00:04:05;;;;;;;;;17.00;15.25;;;;;15.59;67.41;101919.06;2441725;28;46436;-87
2022/04/14 00:05:15;;;;;;;;;13.00;13.00;;;;;15.56;67.60;101920.03;2441776;28;44595;-87
2022/04/14 00:06:25;;;;;;;;;15.75;15.00;;;;;15.55;67.27;101920.97;2449859;28;45242;-87
2022/04/14 00:07:36;;;;;;;;;13.25;13.25;;;;;15.52;67.38;101921.94;2441131;28;44637;-87
2022/04/14 00:08:47;;;;;;;;;15.75;14.25;;;;;15.50;67.40;101913.19;2433974;28;46529;-87
2022/04/14 00:09:57;;;;;;;;;17.00;15.75;;;;;15.49;67.92;101918.53;2441123;28;45210;-87
2022/04/14 00:11:08;;;;;;;;;15.50;14.00;;;;;15.47;67.36;101915.06;2448677;28;47012;-87
2022/04/14 00:12:18;;;;;;;;;14.00;14.00;;;;;15.45;67.38;101915.13;2443147;28;45216;-87
2022/04/14 00:13:28;;;;;;;;;19.00;16.25;;;;;15.45;67.49;101920.44;2446880;28;48176;-87
2022/04/14 00:14:39;;;;;;;;;19.25;16.75;;;;;15.43;67.39;101919.63;2443685;28;45433;-87
2022/04/14 00:15:50;;;;;;;;;15.75;15.75;;;;;15.41;67.37;101913.47;2445491;27;47194;-86
2022/04/14 00:17:00;;;;;;;;;12.75;10.75;;;;;15.39;67.63;101915.31;2461036;27;45333;-87
2022/04/14 00:18:10;;;;;;;;;18.00;15.50;;;;;15.39;67.43;101917.97;2442356;27;45330;-87
2022/04/14 00:19:21;;;;;;;;;16.00;16.00;;;;;15.37;67.16;101922.47;2441708;28;45199;-87
2022/04/14 00:20:31;;;;;;;;;17.25;16.00;;;;;15.36;67.27;101915.47;2441706;28;45387;-86
2022/04/14 00:21:41;;;;;;;;;17.50;14.00;;;;;15.33;67.56;101920.84;2441835;28;44799;-86
2022/04/14 00:22:52;;;;;;;;;15.25;15.25;;;;;15.31;67.32;101918.22;2441641;28;45380;-87
2022/04/14 00:24:02;;;;;;;;;16.50;15.00;;;;;15.30;67.58;101913.88;2443068;28;45260;-87
2022/04/14 00:25:13;;;;;;;;;15.50;13.75;;;;;15.29;67.57;101920.94;2441545;28;45549;-87
2022/04/14 00:26:23;;;;;;;;;21.00;17.00;;;;;15.27;67.71;101912.19;2446958;28;45286;-87
2022/04/14 00:27:34;;;;;;;;;18.00;18.00;;;;;15.26;67.49;101909.59;2433750;28;47479;-87
2022/04/14 00:28:46;;;;;;;;;15.50;15.50;;;;;15.25;67.48;101910.50;2443953;28;45212;-87
2022/04/14 00:29:56;;;;;;;;;17.25;16.50;;;;;15.24;67.51;101912.28;2441542;28;45666;-87
2022/04/14 00:31:06;;;;;;;;;15.50;12.25;;;;;15.23;67.44;101921.16;2441792;28;44582;-87
2022/04/14 00:32:17;;;;;;;;;17.75;16.75;;;;;15.21;67.51;101914.19;2441528;28;46089;-87
2022/04/14 00:33:27;;;;;;;;;15.75;14.50;;;;;15.21;67.70;101922.97;2445185;28;44641;-87
2022/04/14 00:34:37;;;;;;;;;17.50;16.00;;;;;15.19;67.61;101915.09;2450569;28;47099;-87
2022/04/14 00:35:48;;;;;;;;;15.00;12.50;;;;;15.18;67.75;101920.47;2433723;28;45237;-87
2022/04/14 00:36:58;;;;;;;;;17.75;16.25;;;;;15.15;67.66;101910.84;2447065;28;46489;-87
2022/04/14 00:38:09;;;;;;;;;16.00;14.50;;;;;15.14;67.55;101914.38;2449248;27;44757;-87
2022/04/14 00:39:19;;;;;;;;;16.50;16.00;;;;;15.13;67.52;101910.03;2441630;28;45567;-86
2022/04/14 00:40:29;;;;;;;;;14.00;10.75;;;;;15.13;67.80;101909.16;2441317;28;45334;-87
2022/04/14 00:41:40;;;;;;;;;15.25;13.50;;;;;15.10;67.69;101909.25;2445186;28;45275;-87
2022/04/14 00:42:50;;;;;;;;;12.00;12.00;;;;;15.11;67.90;101911.00;2441826;28;45338;-87
2022/04/14 00:44:00;;;;;;;;;16.25;14.50;;;;;15.10;67.52;101906.59;2449487;28;45337;-87
2022/04/14 00:45:11;;;;;;;;;9.00;9.00;;;;;15.08;67.68;101909.31;2451440;27;44674;-87
2022/04/14 00:46:22;;;;;;;;;13.50;13.50;;;;;15.06;67.83;101906.69;2450449;28;47145;-86
2022/04/14 00:47:35;;;;;;;;;17.00;15.75;;;;;15.06;67.63;101904.03;2450954;28;45345;-86
2022/04/14 00:48:46;;;;;;;;;20.75;13.00;;;;;15.04;67.73;101900.59;2450418;28;47345;-87
2022/04/14 00:49:57;;;;;;;;;14.25;14.25;;;;;15.05;67.61;101906.75;2450708;28;45200;-87
2022/04/14 00:51:08;;;;;;;;;17.50;15.50;;;;;15.03;67.81;101912.13;2453625;27;47411;-86
2022/04/14 00:52:22;;;;;;;;;16.50;16.50;;;;;15.02;68.03;101909.50;2443051;28;45385;-86
2022/04/14 00:53:32;;;;;;;;;15.50;15.50;;;;;15.00;67.81;101914.84;2450683;28;45583;-86
2022/04/14 00:54:42;;;;;;;;;15.75;13.50;;;;;15.01;67.60;101915.72;2446159;28;45464;-86
2022/04/14 00:55:53;;;;;;;;;18.75;15.75;;;;;14.98;67.56;101908.75;2443130;28;47094;-87
2022/04/14 00:57:04;;;;;;;;;17.75;15.00;;;;;14.98;67.69;101913.16;2449403;27;45431;-86
2022/04/14 00:58:14;;;;;;;;;18.25;12.75;;;;;14.95;67.62;101909.72;2440342;28;47416;-85
2022/04/14 00:59:26;;;;;;;;;13.50;12.25;;;;;14.94;67.73;101910.63;2437556;28;45429;-86
2022/04/14 01:00:36;;;;;;;;;14.00;13.75;;;;;14.95;67.73;101914.13;2449746;28;46388;-86
2022/04/14 01:01:48;;;;;;;;;16.00;14.50;;;;;14.93;67.73;101911.56;2449842;28;45303;-86
2022/04/14 01:02:59;;;;;;;;;17.00;15.50;;;;;14.93;67.75;101913.31;2450401;28;45517;-87
2022/04/14 01:04:10;;;;;;;;;15.25;14.50;;;;;14.92;67.98;101920.38;2449709;28;44742;-86
2022/04/14 01:05:21;;;;;;;;;16.25;15.00;;;;;14.90;67.95;101914.28;2443248;28;47418;-86
2022/04/14 01:06:32;;;;;;;;;17.25;14.50;;;;;14.89;68.08;101912.53;2450763;28;45280;-86
2022/04/14 01:07:45;;;;;;;;;16.00;15.50;;;;;14.89;68.08;101919.66;2445002;28;46739;-86
2022/04/14 01:10:25;;;;;;;;;16.50;15.00;;;;;14.87;67.88;101913.50;2442655;28;45465;-86
2022/04/14 01:11:36;;;;;;;;;19.75;13.00;;;;;14.86;68.02;101917.97;2441769;28;44747;-86
2022/04/14 01:12:46;;;;;;;;;12.25;12.00;;;;;14.84;67.82;101915.31;2440974;28;45364;-86
2022/04/14 01:13:57;;;;;;;;;11.75;11.75;;;;;14.85;68.10;101917.09;2449007;27;45236;-86
2022/04/14 01:15:14;;;;;;;;;11.75;11.75;;;;;14.85;67.95;101917.09;2440536;28;48260;-86
2022/04/14 01:16:24;;;;;;;;;16.00;13.50;;;;;14.84;68.04;101917.13;2455391;27;44716;-86
2022/04/14 01:17:35;;;;;;;;;19.00;13.25;;;;;14.83;68.20;101910.94;2451486;27;45256;-86
2022/04/14 01:18:45;;;;;;;;;14.00;12.75;;;;;14.82;67.96;101911.84;2441413;28;45224;-86
2022/04/14 01:19:55;;;;;;;;;19.50;15.25;;;;;14.83;68.14;101918.00;2441156;28;46487;-86
2022/04/14 01:21:06;;;;;;;;;19.25;15.00;;;;;14.81;68.14;101915.44;2440387;28;44603;-86
2022/04/14 01:22:28;;;;;;;;;16.25;11.25;;;;;14.80;68.06;101918.09;2450466;28;45174;-86
2022/04/14 01:23:42;;;;;;;;;18.50;16.00;;;;;14.80;68.11;101918.09;2444834;27;45310;-86
2022/04/14 01:24:57;;;;;;;;;15.00;11.50;;;;;14.77;68.14;101908.47;2445801;27;45540;-86
2022/04/14 01:26:08;;;;;;;;;15.00;15.00;;;;;14.78;68.13;101914.66;2441326;28;45227;-86
2022/04/14 01:27:19;;;;;;;;;14.50;14.50;;;;;14.76;68.00;101912.06;2441150;28;47100;-86
2022/04/14 01:28:29;;;;;;;;;15.25;14.75;;;;;14.76;67.94;101916.47;2441255;28;44609;-86
2022/04/14 01:29:39;;;;;;;;;18.75;16.25;;;;;14.75;68.04;101920.91;2441335;28;45392;-86
2022/04/14 01:30:50;;;;;;;;;18.00;15.75;;;;;14.74;68.09;101916.53;2441396;28;45350;-86
2022/04/14 01:32:03;;;;;;;;;15.00;11.25;;;;;14.72;68.06;101913.94;2440967;28;46390;-86
2022/04/14 01:33:16;;;;;;;;;14.00;13.25;;;;;14.72;68.09;101921.88;2441247;28;45294;-86
2022/04/14 01:34:26;;;;;;;;;15.50;12.75;;;;;14.72;68.37;101915.69;2448259;28;46282;-86
2022/04/14 01:35:37;;;;;;;;;15.00;15.00;;;;;14.72;68.02;101923.63;2441200;28;45224;-86
2022/04/14 01:36:47;;;;;;;;;15.00;12.00;;;;;14.70;68.26;101926.34;2448381;28;45309;-86
2022/04/14 01:37:58;;;;;;;;;15.75;14.50;;;;;14.69;68.00;101924.59;2451034;27;45286;-87
2022/04/14 01:39:10;;;;;;;;;21.75;16.75;;;;;14.71;68.53;101924.56;2450939;27;46168;-86
2022/04/14 01:40:20;;;;;;;;;15.00;15.00;;;;;14.69;68.05;101921.13;2443497;27;45264;-86
2022/04/14 01:41:30;;;;;;;;;15.00;13.50;;;;;14.68;67.98;101924.66;2441539;28;46183;-86
2022/04/14 01:42:41;;;;;;;;;10.50;9.50;;;;;14.68;68.22;101929.94;2451126;27;45228;-87
2022/04/14 01:43:52;;;;;;;;;12.00;12.00;;;;;14.66;68.22;101924.72;2443080;28;47284;-86
2022/04/14 01:45:03;;;;;;;;;17.75;16.25;;;;;14.65;68.02;101928.25;2440639;28;45505;-86
2022/04/14 01:46:13;;;;;;;;;16.75;15.00;;;;;14.64;68.00;101929.19;2441130;28;46291;-86
2022/04/14 01:47:23;;;;;;;;;12.75;11.00;;;;;14.63;68.35;101928.31;2441195;28;44612;-87
2022/04/14 01:48:35;;;;;;;;;15.00;13.00;;;;;14.63;68.17;101925.69;2441884;28;45458;-87
2022/04/14 01:49:45;;;;;;;;;13.25;12.50;;;;;14.62;68.30;101923.94;2441117;28;44648;-86
2022/04/14 01:50:56;;;;;;;;;19.25;15.00;;;;;14.62;68.38;101921.28;2440972;28;46473;-86
2022/04/14 01:52:06;;;;;;;;;14.00;11.50;;;;;14.60;68.23;101925.75;2443666;28;45218;-86
2022/04/14 01:53:17;;;;;;;;;10.00;10.00;;;;;14.61;68.24;101926.63;2440977;28;46058;-87
2022/04/14 01:54:28;;;;;;;;;10.50;10.50;;;;;14.59;68.10;101926.66;2448486;28;45168;-86
2022/04/14 01:55:38;;;;;;;;;15.25;11.50;;;;;14.59;68.19;101918.72;2444410;28;47140;-86
2022/04/14 01:56:49;;;;;;;;;16.25;14.25;;;;;14.58;68.17;101924.94;2442163;28;45268;-86
2022/04/14 01:58:00;;;;;;;;;18.25;15.75;;;;;14.57;68.09;101920.56;2450037;28;47211;-86
2022/04/14 01:59:10;;;;;;;;;16.50;15.25;;;;;14.57;68.18;101923.22;2448388;28;45338;-86
2022/04/14 02:00:21;;;;;;;;;14.50;13.00;;;;;14.56;68.09;101921.50;2446706;27;45648;-86
2022/04/14 02:01:31;;;;;;;;;18.25;14.75;;;;;14.55;68.37;101925.03;2440340;28;45314;-86
2022/04/14 02:02:42;;;;;;;;;17.75;14.75;;;;;14.55;68.42;101921.53;2450288;28;45338;-87
2022/04/14 02:03:52;;;;;;;;;17.25;13.00;;;;;14.54;67.77;101923.31;2445254;27;45515;-87
2022/04/14 02:05:03;;;;;;;;;16.75;15.75;;;;;14.55;68.24;101918.88;2440811;28;46080;-86
2022/04/14 02:06:14;;;;;;;;;15.50;14.25;;;;;14.53;68.49;101913.63;2440245;28;45327;-87
2022/04/14 02:07:24;;;;;;;;;16.00;14.25;;;;;14.52;68.49;101915.41;2448433;28;46640;-87
2022/04/14 02:08:35;;;;;;;;;14.25;14.25;;;;;14.52;68.49;101920.72;2446620;27;45230;-86
2022/04/14 02:09:46;;;;;;;;;15.75;15.50;;;;;14.50;68.35;101917.25;2443840;28;47550;-87
2022/04/14 02:10:56;;;;;;;;;17.00;15.50;;;;;14.50;68.47;101914.59;2446757;28;45278;-86
2022/04/14 02:12:07;;;;;;;;;17.50;15.50;;;;;14.50;68.53;101911.09;2444258;27;45437;-87
2022/04/14 02:13:18;;;;;;;;;12.00;12.00;;;;;14.51;68.23;101913.69;2442880;28;45207;-87
2022/04/14 02:14:28;;;;;;;;;16.00;15.00;;;;;14.50;68.54;101911.09;2440983;28;46299;-87
2022/04/14 02:15:38;;;;;;;;;14.50;14.50;;;;;14.49;68.33;101910.22;2441230;28;44672;-87
2022/04/14 02:16:49;;;;;;;;;13.75;13.75;;;;;14.49;68.42;101914.66;2459418;27;48030;-86
2022/04/14 02:17:59;;;;;;;;;14.00;13.50;;;;;14.48;68.82;101908.50;2446041;27;45369;-87
2022/04/14 02:19:09;;;;;;;;;15.25;13.50;;;;;14.49;68.71;101912.84;2447647;27;45402;-87
2022/04/14 02:20:20;;;;;;;;;17.25;16.75;;;;;14.49;68.53;101915.50;2440992;28;45294;-87
2022/04/14 02:21:30;;;;;;;;;17.00;15.50;;;;;14.48;68.28;101911.16;2440853;28;45353;-86
2022/04/14 02:22:41;;;;;;;;;15.25;13.25;;;;;14.49;68.36;101904.06;2440085;28;44610;-87
2022/04/14 02:23:51;;;;;;;;;15.25;15.25;;;;;14.48;68.56;101907.63;2440273;28;46112;-86
2022/04/14 02:25:02;;;;;;;;;16.00;16.00;;;;;14.46;68.46;101907.69;2439963;28;45243;-87
2022/04/14 02:26:12;;;;;;;;;16.25;16.25;;;;;14.48;68.48;101907.63;2450720;28;45247;-87
2022/04/14 02:27:25;;;;;;;;;15.25;14.00;;;;;14.48;68.17;101910.28;2447309;27;44610;-86
2022/04/14 02:28:35;;;;;;;;;18.25;15.75;;;;;14.48;68.61;101907.63;2442503;28;45420;-87
2022/04/14 02:29:45;;;;;;;;;16.00;15.00;;;;;14.48;68.60;101900.56;2445738;28;44692;-87
2022/04/14 02:30:56;;;;;;;;;15.75;13.50;;;;;14.47;68.50;101906.75;2441967;28;46241;-86
2022/04/14 02:32:06;;;;;;;;;15.25;14.50;;;;;14.46;68.37;101898.88;2443370;28;45227;-86
2022/04/14 02:33:17;;;;;;;;;17.25;14.75;;;;;14.47;68.74;101897.97;2452400;27;45160;-86
2022/04/14 02:34:27;;;;;;;;;26.00;16.00;;;;;14.46;68.44;101905.03;2452314;28;45168;-87
2022/04/14 02:35:37;;;;;;;;;18.00;15.00;;;;;14.46;68.56;101893.59;2442699;28;46005;-87
2022/04/14 02:36:48;;;;;;;;;16.50;13.75;;;;;14.46;68.73;101902.41;2442383;28;44681;-86
2022/04/14 02:37:58;;;;;;;;;18.00;16.25;;;;;14.46;68.48;101901.53;2442323;28;46576;-87
2022/04/14 02:39:09;;;;;;;;;16.25;15.25;;;;;14.47;68.51;101905.91;2441764;28;45234;-86
2022/04/14 02:40:20;;;;;;;;;16.00;14.50;;;;;14.46;68.61;101906.81;2452785;27;47969;-86
2022/04/14 02:41:30;;;;;;;;;16.50;14.25;;;;;14.44;68.47;101911.28;2450713;27;45443;-87
2022/04/14 02:42:41;;;;;;;;;14.25;14.25;;;;;14.45;68.80;101911.22;2442333;28;45512;-86
2022/04/14 02:43:51;;;;;;;;;12.75;12.75;;;;;14.45;68.57;101907.72;2441688;28;45263;-87
2022/04/14 02:45:02;;;;;;;;;17.00;15.50;;;;;14.43;68.92;101905.13;2442085;28;45532;-87
2022/04/14 02:46:13;;;;;;;;;16.75;14.75;;;;;14.44;68.82;101908.66;2442595;28;44683;-87
2022/04/14 02:47:23;;;;;;;;;17.00;15.50;;;;;14.44;68.73;101911.28;2442259;28;45311;-87
2022/04/14 02:48:33;;;;;;;;;18.25;12.50;;;;;14.44;68.92;101921.88;2444306;28;45200;-87
2022/04/14 02:49:44;;;;;;;;;15.50;14.50;;;;;14.46;68.75;101917.38;2450280;28;48156;-87
2022/04/14 02:50:54;;;;;;;;;15.00;14.50;;;;;14.45;68.67;101920.94;2441897;28;45176;-87
2022/04/14 02:52:05;;;;;;;;;15.50;12.50;;;;;14.44;68.70;101913.94;2441445;28;46874;-88
2022/04/14 02:53:15;;;;;;;;;16.25;15.00;;;;;14.45;68.72;101918.28;2442000;28;45406;-87
2022/04/14 02:54:26;;;;;;;;;15.25;13.75;;;;;14.44;68.86;101916.56;2442209;28;45361;-87
2022/04/14 02:55:36;;;;;;;;;16.00;14.00;;;;;14.44;68.89;101913.94;2442402;28;44701;-87
2022/04/14 02:56:46;;;;;;;;;17.00;14.25;;;;;14.45;68.93;101918.28;2441495;28;47302;-87
2022/04/14 02:57:56;;;;;;;;;20.00;17.75;;;;;14.45;68.72;101915.66;2442448;28;47095;-87
2022/04/14 02:59:07;;;;;;;;;20.50;18.25;;;;;14.45;68.63;101918.28;2441969;28;46131;-87
2022/04/14 03:00:17;;;;;;;;;18.25;15.75;;;;;14.42;69.01;101908.66;2442349;28;45196;-87
2022/04/14 03:01:28;;;;;;;;;16.25;14.25;;;;;14.43;68.91;101920.13;2442441;28;46238;-87
2022/04/14 03:02:39;;;;;;;;;16.50;16.50;;;;;14.44;68.76;101921.88;2442301;28;44644;-87
2022/04/14 03:03:49;;;;;;;;;15.00;14.50;;;;;14.43;68.65;101917.47;2444986;28;47275;-87
2022/04/14 03:04:59;;;;;;;;;16.25;10.00;;;;;14.43;68.88;101915.72;2450926;28;45389;-87
2022/04/14 03:06:10;;;;;;;;;14.25;13.75;;;;;14.43;68.97;101915.72;2442392;27;45319;-87
2022/04/14 03:07:20;;;;;;;;;16.50;16.00;;;;;14.43;68.96;101915.72;2442274;28;45444;-87
2022/04/14 03:08:30;;;;;;;;;16.50;13.75;;;;;14.42;68.89;101916.59;2445334;28;47272;-87
2022/04/14 03:09:41;;;;;;;;;15.75;14.75;;;;;14.42;68.72;101918.41;2441456;28;45817;-87
2022/04/14 03:10:53;;;;;;;;;17.50;17.25;;;;;14.41;68.56;101920.19;2446829;28;48170;-87
2022/04/14 03:12:03;;;;;;;;;14.00;12.75;;;;;14.42;68.76;101921.06;2441897;28;45412;-87
2022/04/14 03:13:14;;;;;;;;;17.00;16.50;;;;;14.42;68.94;101915.75;2447776;28;46771;-87
2022/04/14 03:14:24;;;;;;;;;17.75;16.25;;;;;14.42;68.72;101913.13;2449038;28;45299;-87
2022/04/14 03:15:34;;;;;;;;;20.25;13.50;;;;;14.41;69.02;101917.53;2441831;28;46562;-87
2022/04/14 03:16:48;;;;;;;;;16.50;16.50;;;;;14.42;68.71;101916.59;2443588;27;45260;-87
2022/04/14 03:17:58;;;;;;;;;18.00;15.50;;;;;14.43;68.91;101920.13;2450952;28;45287;-87
2022/04/14 03:19:08;;;;;;;;;20.50;18.50;;;;;14.42;68.88;101915.75;2445362;27;45134;-87
2022/04/14 03:20:19;;;;;;;;;18.00;16.00;;;;;14.40;68.63;101916.66;2441056;28;46569;-88
2022/04/14 03:21:29;;;;;;;;;21.00;16.50;;;;;14.40;69.03;101919.31;2442090;28;45232;-88
2022/04/14 03:22:40;;;;;;;;;20.75;19.50;;;;;14.39;69.03;101914.94;2441253;28;46969;-88
2022/04/14 03:23:50;;;;;;;;;19.25;15.25;;;;;14.38;68.69;101913.19;2449331;28;45268;-88
2022/04/14 03:25:05;;;;;;;;;20.50;15.00;;;;;14.39;69.01;101917.59;2442476;28;45441;-88
2022/04/14 03:26:16;;;;;;;;;20.00;17.25;;;;;14.39;68.68;101914.94;2443253;28;45214;-88
2022/04/14 03:27:26;;;;;;;;;20.75;18.00;;;;;14.38;68.73;101915.84;2450771;28;47030;-88
2022/04/14 03:28:37;;;;;;;;;19.50;16.25;;;;;14.39;68.97;101927.31;2444288;28;44549;-88
2022/04/14 03:29:48;;;;;;;;;19.75;15.25;;;;;14.38;68.88;101921.13;2441968;28;45213;-88
2022/04/14 03:30:58;;;;;;;;;17.25;15.50;;;;;14.38;68.74;101925.56;2441579;28;44646;-88
2022/04/14 03:32:08;;;;;;;;;16.50;16.25;;;;;14.38;68.88;101925.56;2451103;28;45168;-88
2022/04/14 03:33:19;;;;;;;;;15.50;14.25;;;;;14.37;69.07;101927.31;2446249;27;45216;-87
2022/04/14 03:34:29;;;;;;;;;15.75;14.25;;;;;14.37;69.26;101932.63;2444655;28;46975;-88
2022/04/14 03:35:39;;;;;;;;;16.25;15.25;;;;;14.37;68.89;101929.13;2443512;28;44788;-87
2022/04/14 03:36:50;;;;;;;;;17.75;14.00;;;;;14.36;68.87;101930.03;2450373;28;45346;-87
2022/04/14 03:38:00;;;;;;;;;17.50;16.00;;;;;14.38;68.70;101933.50;2451498;27;45221;-87
2022/04/14 03:39:10;;;;;;;;;16.25;15.25;;;;;14.37;68.75;101931.78;2460738;27;47783;-87
2022/04/14 03:40:21;;;;;;;;;18.00;15.00;;;;;14.36;69.04;101936.19;2450783;28;44680;-87
2022/04/14 03:41:31;;;;;;;;;21.00;14.75;;;;;14.36;69.09;101938.84;2443854;28;47435;-87
2022/04/14 03:42:42;;;;;;;;;18.50;17.75;;;;;14.37;69.12;101937.91;2453925;27;45254;-87
2022/04/14 03:43:52;;;;;;;;;13.25;10.75;;;;;14.35;68.89;101936.22;2450878;28;48503;-87
2022/04/14 03:45:04;;;;;;;;;6.50;4.00;;;;;14.34;69.03;101937.16;2442767;28;45458;-87
2022/04/14 03:46:15;;;;;;;;;19.00;18.00;;;;;14.34;68.98;101937.16;2446291;28;46993;-87
2022/04/14 03:47:25;;;;;;;;;17.75;17.75;;;;;14.34;68.97;101943.31;2449171;28;45325;-87
2022/04/14 03:48:36;;;;;;;;;21.25;20.00;;;;;14.34;68.96;101938.03;2449731;28;47103;-87
2022/04/14 03:49:46;;;;;;;;;18.25;16.75;;;;;14.33;68.75;101940.69;2438209;28;45150;-87
2022/04/14 03:50:56;;;;;;;;;22.00;20.00;;;;;14.33;68.81;101933.63;2443055;28;45243;-87
2022/04/14 03:52:07;;;;;;;;;21.25;17.50;;;;;14.32;68.74;101938.97;2442796;28;45288;-88
2022/04/14 03:53:18;;;;;;;;;19.25;17.50;;;;;14.31;68.94;101931.94;2441870;28;47221;-87
2022/04/14 03:54:28;;;;;;;;;22.25;18.00;;;;;14.30;68.86;101933.72;2451061;28;44665;-87
2022/04/14 03:55:39;;;;;;;;;19.50;18.75;;;;;14.31;68.74;101934.59;2450269;28;47252;-88
2022/04/14 03:56:49;;;;;;;;;19.75;18.00;;;;;14.30;68.96;101941.66;2434221;28;45300;-88
2022/04/14 03:57:59;;;;;;;;;21.75;20.50;;;;;14.30;68.94;101936.34;2442299;28;47934;-87
2022/04/14 03:59:13;;;;;;;;;18.50;17.25;;;;;14.29;68.69;101935.50;2441176;28;45419;-87
2022/04/14 04:00:23;;;;;;;;;18.25;15.50;;;;;14.28;68.65;101933.78;2442430;28;47152;-88
2022/04/14 04:01:34;;;;;;;;;22.00;20.75;;;;;14.27;68.82;101939.13;2451333;28;45238;-87
2022/04/14 04:02:44;;;;;;;;;21.50;19.75;;;;;14.27;68.86;101939.97;2444144;28;47978;-87
2022/04/14 04:03:54;;;;;;;;;25.75;21.00;;;;;14.27;68.65;101944.41;2451301;28;45172;-88
2022/04/14 04:05:06;;;;;;;;;24.25;20.75;;;;;14.26;68.99;101943.53;2446438;27;45358;-87
2022/04/14 04:06:16;;;;;;;;;26.25;22.00;;;;;14.25;69.04;101938.25;2446486;28;45243;-88
2022/04/14 04:07:26;;;;;;;;;22.50;20.00;;;;;14.26;68.79;101945.31;2441578;28;46150;-87
2022/04/14 04:08:37;;;;;;;;;23.00;22.00;;;;;14.27;69.07;101952.34;2444246;28;45383;-87
2022/04/14 04:09:47;;;;;;;;;21.50;20.00;;;;;14.26;68.79;101953.22;2441175;28;45513;-87
2022/04/14 04:10:58;;;;;;;;;23.50;21.25;;;;;14.26;69.18;101945.31;2445275;28;44817;-87
2022/04/14 04:12:09;;;;;;;;;23.25;19.25;;;;;14.29;69.10;101958.44;2444895;28;45507;-87
2022/04/14 04:13:19;;;;;;;;;21.75;21.00;;;;;14.27;69.10;101947.88;2449858;28;45234;-87
2022/04/14 04:14:30;;;;;;;;;19.00;18.50;;;;;14.27;68.93;101944.41;2443683;28;48147;-87
2022/04/14 04:15:40;;;;;;;;;21.50;19.75;;;;;14.27;68.95;101950.53;2448294;27;45285;-87
2022/04/14 04:16:51;;;;;;;;;18.25;18.25;;;;;14.26;68.89;101947.94;2454867;27;45355;-88
2022/04/14 04:18:01;;;;;;;;;17.75;17.75;;;;;14.26;68.59;101950.59;2442125;28;45436;-87
2022/04/14 04:19:12;;;;;;;;;19.00;18.50;;;;;14.25;68.79;101948.84;2441200;28;48082;-87
2022/04/14 04:20:22;;;;;;;;;25.00;20.00;;;;;14.23;68.88;101940.09;2453256;27;44677;-87
2022/04/14 04:21:33;;;;;;;;;29.00;22.75;;;;;14.23;68.53;101946.25;2454160;27;45259;-88
2022/04/14 04:22:43;;;;;;;;;21.50;18.75;;;;;14.23;68.77;101950.66;2448050;28;45364;-88
2022/04/14 04:23:54;;;;;;;;;28.00;22.00;;;;;14.23;68.70;101955.97;2434077;28;48187;-88
2022/04/14 04:25:05;;;;;;;;;21.50;21.25;;;;;14.20;68.52;101945.50;2440622;28;45179;-88
2022/04/14 04:26:15;;;;;;;;;21.25;18.50;;;;;14.21;68.79;101949.84;2441087;28;46462;-88
2022/04/14 04:27:26;;;;;;;;;21.50;18.75;;;;;14.19;68.59;101949.91;2441744;28;44523;-88
2022/04/14 04:28:36;;;;;;;;;26.50;22.75;;;;;14.20;68.85;101950.78;2441854;28;45251;-88
2022/04/14 04:29:47;;;;;;;;;20.75;19.00;;;;;14.18;68.84;101949.03;2445331;28;45303;-87
2022/04/14 04:30:57;;;;;;;;;22.50;21.50;;;;;14.18;68.73;101948.16;2447156;28;46384;-87
2022/04/14 04:32:08;;;;;;;;;21.25;19.75;;;;;14.17;68.64;101943.81;2441792;28;44636;-87
2022/04/14 04:33:18;;;;;;;;;23.00;20.00;;;;;14.16;68.58;101945.56;2441444;28;45368;-87
2022/04/14 04:34:29;;;;;;;;;18.75;18.00;;;;;14.16;68.62;101939.41;2441771;28;45226;-87
2022/04/14 04:35:39;;;;;;;;;21.50;18.00;;;;;14.14;68.87;101936.81;2441485;28;45409;-87
2022/04/14 04:36:49;;;;;;;;;21.75;20.25;;;;;14.12;68.96;101933.38;2441713;28;45248;-87
2022/04/14 04:37:59;;;;;;;;;18.50;17.25;;;;;14.12;68.65;101935.13;2441460;28;46474;-88
2022/04/14 04:39:10;;;;;;;;;22.25;20.50;;;;;14.12;68.69;101943.94;2441591;28;44629;-87
2022/04/14 04:40:21;;;;;;;;;17.50;17.25;;;;;14.10;68.68;101932.50;2441567;28;46470;-87
2022/04/14 04:41:32;;;;;;;;;18.25;17.00;;;;;14.10;68.75;101939.59;2441170;28;45272;-88
2022/04/14 04:42:42;;;;;;;;;21.00;18.25;;;;;14.07;68.89;101940.56;2442927;28;46319;-88
2022/04/14 04:43:52;;;;;;;;;21.50;20.50;;;;;14.06;68.81;101947.63;2443909;27;45434;-87
2022/04/14 04:45:03;;;;;;;;;22.75;19.25;;;;;14.05;68.58;101940.59;2441420;28;45322;-88
2022/04/14 04:46:15;;;;;;;;;19.50;18.75;;;;;14.05;69.05;101942.38;2441659;28;45230;-87
2022/04/14 04:47:26;;;;;;;;;21.50;21.00;;;;;14.04;68.86;101949.44;2441499;28;45451;-87
2022/04/14 04:48:36;;;;;;;;;22.25;21.25;;;;;14.03;68.68;101942.41;2441098;28;44605;-87
2022/04/14 04:49:47;;;;;;;;;21.50;20.50;;;;;14.03;68.91;101949.47;2441223;28;45288;-87
2022/04/14 04:50:57;;;;;;;;;20.50;17.50;;;;;14.03;68.60;101957.41;2444508;28;45208;-87
2022/04/14 04:52:08;;;;;;;;;19.00;18.50;;;;;14.02;68.52;101947.75;2442360;27;45543;-87
2022/04/14 04:53:19;;;;;;;;;24.50;18.50;;;;;14.01;68.89;101951.28;2441571;28;44573;-87
2022/04/14 04:54:29;;;;;;;;;21.25;20.50;;;;;13.99;68.62;101953.13;2449319;28;45267;-87
2022/04/14 04:55:40;;;;;;;;;20.75;19.00;;;;;14.00;68.62;101971.56;2450506;28;45314;-87
2022/04/14 04:56:51;;;;;;;;;24.75;21.25;;;;;13.99;69.15;101972.50;2447790;28;45322;-87
2022/04/14 04:58:01;;;;;;;;;23.00;20.50;;;;;13.99;69.21;101971.63;2443197;28;45335;-87
2022/04/14 04:59:11;;;;;;;;;21.75;19.50;;;;;13.98;68.91;101972.50;2443235;28;45416;-87
2022/04/14 05:00:22;;;;;;;;;21.75;19.25;;;;;13.96;69.19;101980.50;2444065;28;45342;-87
2022/04/14 05:01:32;;;;;;;;;25.00;22.50;;;;;13.95;69.21;101976.97;2442661;28;46447;-87
2022/04/14 05:02:42;;;;;;;;;25.00;21.25;;;;;13.97;69.37;101984.88;2448037;28;45444;-87
2022/04/14 05:03:54;;;;;;;;;24.75;20.50;;;;;13.97;69.12;101984.00;2440578;28;47699;-87
2022/04/14 05:05:04;;;;;;;;;20.75;20.75;;;;;13.98;69.36;101983.09;2443345;28;45313;-87
2022/04/14 05:06:15;;;;;;;;;21.25;19.75;;;;;13.98;69.21;101983.09;2447720;28;45394;-87
2022/04/14 05:07:25;;;;;;;;;25.25;19.75;;;;;13.99;69.23;101984.84;2440530;28;45286;-87
2022/04/14 05:08:36;;;;;;;;;22.75;21.50;;;;;13.97;69.09;101978.72;2447833;28;45377;-87
2022/04/14 05:09:46;;;;;;;;;25.50;20.25;;;;;13.97;69.08;101978.72;2443164;28;45274;-87
2022/04/14 05:10:56;;;;;;;;;23.75;19.50;;;;;13.95;68.84;101979.63;2443455;28;46509;-87
2022/04/14 05:12:07;;;;;;;;;26.25;20.00;;;;;13.95;68.88;101982.25;2441728;27;45233;-87
2022/04/14 05:13:18;;;;;;;;;21.75;18.75;;;;;13.95;68.77;101979.63;2445416;28;45708;-87
2022/04/14 05:14:28;;;;;;;;;22.50;19.00;;;;;13.94;68.78;101980.56;2448629;27;45237;-88
2022/04/14 05:15:38;;;;;;;;;21.50;19.75;;;;;13.93;68.95;101981.44;2442453;28;45207;-87
2022/04/14 05:16:49;;;;;;;;;14.50;14.50;;;;;13.92;68.82;101984.13;2443558;27;45136;-87
2022/04/14 05:17:59;;;;;;;;;29.00;23.75;;;;;13.91;69.07;101979.75;2440371;28;47192;-87
2022/04/14 05:19:10;;;;;;;;;24.50;19.00;;;;;13.92;68.87;101981.50;2440463;28;45204;-87
2022/04/14 05:20:21;;;;;;;;;23.00;20.50;;;;;13.90;68.83;101973.59;2440682;28;45588;-87
2022/04/14 05:21:31;;;;;;;;;21.25;18.75;;;;;13.89;68.59;101982.44;2440448;28;45276;-87
2022/04/14 05:22:41;;;;;;;;;24.25;21.75;;;;;13.89;68.90;101978.94;2440592;28;45464;-87